Time;durP1;ratioP1;P1;durP2;ratioP2;P2;SDS_P1;SDS_P2;PMS_P1;PMS_P2;Temp;Humidity;BMP_temperature;BMP_pressure;BME280_temperature;BME280_humidity;BME280_pressure;Samples;Min_cycle;Max_cycle;Signal;HPM_P1;HPM_P2
2022/09/07 00:02:23;;;;;;;8.48;4.55;;;;;;;8.39;71.87;102005.03;1764806;81;21658;-85
2022/09/07 00:04:50;;;;;;;7.67;4.80;;;;;;;8.35;71.92;102005.27;1759393;80;22148;-86
2022/09/07 00:07:16;;;;;;;7.60;4.83;;;;;;;8.33;71.99;101996.80;1714544;82;21763;-85
2022/09/07 00:09:43;;;;;;;6.97;4.35;;;;;;;8.30;72.04;102000.17;1721648;82;21597;-85
2022/09/07 00:12:10;;;;;;;7.60;4.97;;;;;;;8.29;72.08;101997.05;1729387;81;21115;-85
2022/09/07 00:14:37;;;;;;;11.45;4.85;;;;;;;8.30;72.17;101992.72;1734154;82;21637;-85
2022/09/07 00:17:03;;;;;;;11.78;5.25;;;;;;;8.28;72.16;101992.63;1731816;82;21066;-86
2022/09/07 00:19:30;;;;;;;6.35;3.87;;;;;;;8.27;72.22;101982.05;1703309;82;22610;-86
2022/09/07 00:21:57;;;;;;;8.70;5.00;;;;;;;8.25;72.26;101984.59;1713923;82;21020;-86
2022/09/07 00:24:24;;;;;;;7.97;4.90;;;;;;;8.24;72.32;101981.48;1712834;82;21082;-86
2022/09/07 00:26:52;;;;;;;7.90;4.72;;;;;;;8.22;72.28;101981.82;1710316;82;21581;-86
2022/09/07 00:29:21;;;;;;;7.72;4.53;;;;;;;8.19;72.39;101981.64;1685272;82;21047;-86
2022/09/07 00:31:47;;;;;;;5.70;4.05;;;;;;;8.17;72.47;101985.48;1715546;82;22580;-87
2022/09/07 00:34:14;;;;;;;7.72;4.33;;;;;;;8.15;72.50;101984.92;1719897;81;21561;-87
2022/09/07 00:36:41;;;;;;;6.70;4.50;;;;;;;8.11;72.54;101983.84;1718641;82;21094;-86
2022/09/07 00:39:08;;;;;;;11.93;5.05;;;;;;;8.12;72.54;101987.36;1722720;82;21082;-86
2022/09/07 00:41:35;;;;;;;7.05;4.35;;;;;;;8.08;72.54;101977.53;1700778;83;21091;-85
2022/09/07 00:44:44;;;;;;;5.85;3.98;;;;;;;8.06;72.61;101970.88;1722814;83;21715;-85
2022/09/07 00:47:25;;;;;;;7.67;4.15;;;;;;;8.04;72.66;101976.45;1722508;83;21079;-84
2022/09/07 00:49:56;;;;;;;7.62;4.45;;;;;;;8.02;72.71;101971.95;1724508;83;21084;-83
2022/09/07 00:52:23;;;;;;;6.85;4.25;;;;;;;8.02;72.77;101970.65;1724746;83;21075;-83
2022/09/07 00:54:53;;;;;;;8.53;4.25;;;;;;;8.01;72.81;101971.03;1724872;82;21032;-83
2022/09/07 00:57:20;;;;;;;6.60;3.95;;;;;;;7.98;72.80;101969.58;1721329;82;21774;-83
2022/09/07 00:59:48;;;;;;;5.87;3.95;;;;;;;7.94;72.84;101968.50;1689759;83;21060;-83
2022/09/07 01:02:16;;;;;;;9.75;3.98;;;;;;;7.94;72.93;101975.05;1716333;83;21020;-83
2022/09/07 01:04:45;;;;;;;5.58;3.92;;;;;;;7.93;72.91;101976.27;1703684;82;21635;-84
2022/09/07 01:07:12;;;;;;;6.47;4.03;;;;;;;7.92;72.98;101979.31;1675141;83;21093;-86
2022/09/07 01:09:39;;;;;;;5.55;4.15;;;;;;;7.88;72.94;101979.97;1724867;82;21756;-84
2022/09/07 01:12:06;;;;;;;7.22;3.85;;;;;;;7.85;72.90;101979.78;1716420;82;21083;-84
2022/09/07 01:14:39;;;;;;;5.70;3.87;;;;;;;7.82;72.96;101974.78;1723426;83;21063;-84
2022/09/07 01:17:47;;;;;;;8.08;4.22;;;;;;;7.77;73.00;101974.12;1724757;82;21187;-84
2022/09/07 01:20:40;;;;;;;6.35;4.12;;;;;;;7.74;73.04;101976.97;1727321;82;21043;-83
2022/09/07 01:23:27;;;;;;;5.75;4.05;;;;;;;7.71;73.14;101978.09;1688371;83;21754;-84
2022/09/07 01:26:20;;;;;;;5.92;3.10;;;;;;;7.68;73.24;101975.33;1704358;82;21029;-84
2022/09/07 01:28:48;;;;;;;6.70;3.83;;;;;;;7.66;73.27;101970.38;1723448;82;21109;-84
2022/09/07 01:31:44;;;;;;;8.28;3.67;;;;;;;7.62;73.33;101973.64;1704689;83;21565;-85
2022/09/07 01:34:24;;;;;;;4.85;3.42;;;;;;;7.58;73.43;101966.94;1650879;85;21557;-85
2022/09/07 01:37:17;;;;;;;3.75;3.12;;;;;;;7.56;73.53;101972.50;1676849;83;21780;-85
2022/09/07 01:39:54;;;;;;;6.90;4.58;;;;;;;7.54;73.58;101966.66;1717798;82;21051;-87
2022/09/07 01:42:27;;;;;;;6.33;3.80;;;;;;;7.51;73.65;101972.64;1720301;83;21155;-84
2022/09/07 01:44:57;;;;;;;7.40;3.77;;;;;;;7.50;73.74;101968.63;1699705;82;21083;-84
2022/09/07 01:47:43;;;;;;;6.90;3.98;;;;;;;7.49;73.79;101958.56;1698130;83;21043;-84
2022/09/07 01:50:21;;;;;;;7.53;3.67;;;;;;;7.51;73.82;101958.23;1702340;82;21876;-87
2022/09/07 01:53:02;;;;;;;7.70;3.80;;;;;;;7.51;73.87;101949.48;1736676;82;21098;-86
2022/09/07 01:55:40;;;;;;;8.23;3.80;;;;;;;7.52;73.88;101949.54;1768242;80;21059;-84
2022/09/07 01:58:23;;;;;;;7.35;3.87;;;;;;;7.52;73.91;101951.27;1773659;80;21414;-88
2022/09/07 02:01:00;;;;;;;5.63;3.93;;;;;;;7.52;73.92;101951.27;1753579;80;21075;-85
2022/09/07 02:03:36;;;;;;;4.90;3.60;;;;;;;7.51;74.04;101948.17;1763805;80;21739;-85
2022/09/07 02:06:42;;;;;;;7.97;4.15;;;;;;;7.52;74.02;101947.34;1773526;79;21047;-84
2022/09/07 02:09:48;;;;;;;5.62;3.65;;;;;;;7.52;74.09;101946.92;1773565;79;21546;-84
2022/09/07 02:12:35;;;;;;;7.78;4.05;;;;;;;7.51;73.99;101949.06;1763814;80;21350;-85
2022/09/07 02:15:06;;;;;;;5.90;3.67;;;;;;;7.48;73.98;101949.30;1734773;81;21063;-84
2022/09/07 02:17:35;;;;;;;8.80;4.10;;;;;;;7.45;73.98;101948.72;1643157;84;22599;-85
2022/09/07 02:20:11;;;;;;;8.35;3.83;;;;;;;7.45;74.01;101950.03;1735657;82;21110;-85
2022/09/07 02:22:42;;;;;;;5.60;3.55;;;;;;;7.45;74.04;101947.41;1734329;82;21210;-85
2022/09/07 02:25:10;;;;;;;4.47;3.52;;;;;;;7.44;74.04;101952.14;1727479;82;21548;-85
2022/09/07 02:27:44;;;;;;;4.20;3.02;;;;;;;7.43;73.97;101946.39;1728582;82;21205;-84
2022/09/07 02:30:12;;;;;;;5.35;3.55;;;;;;;7.39;73.97;101945.73;1747763;81;21742;-84
2022/09/07 02:32:38;;;;;;;7.72;3.33;;;;;;;7.37;73.95;101942.13;1766051;81;21360;-85
2022/09/07 02:35:06;;;;;;;4.00;3.05;;;;;;;7.36;73.98;101945.58;1756660;81;21074;-87
2022/09/07 02:37:33;;;;;;;5.20;3.40;;;;;;;7.33;73.95;101933.19;1755015;81;21070;-87
2022/09/07 02:39:59;;;;;;;5.72;3.40;;;;;;;7.33;74.00;101929.67;1759534;80;21640;-87
2022/09/07 02:42:28;;;;;;;6.25;3.20;;;;;;;7.30;74.01;101936.97;1743034;82;21776;-85
2022/09/07 02:44:55;;;;;;;7.05;3.40;;;;;;;7.28;74.01;101928.12;1727124;81;21130;-87
2022/09/07 02:47:42;;;;;;;5.95;3.80;;;;;;;7.27;74.00;101930.64;1760248;80;21308;-84
2022/09/07 02:51:01;;;;;;;4.67;3.33;;;;;;;7.25;74.02;101933.59;1799203;79;21034;-83
2022/09/07 02:53:48;;;;;;;4.03;3.15;;;;;;;7.19;73.99;101931.10;1771194;79;21043;-84
2022/09/07 02:56:29;;;;;;;4.17;3.30;;;;;;;7.13;74.17;101929.45;1787101;79;21445;-86
2022/09/07 02:59:21;;;;;;;4.72;3.40;;;;;;;7.11;74.30;101932.35;1808861;79;21047;-84
2022/09/07 03:02:16;;;;;;;6.92;3.30;;;;;;;7.11;74.28;101917.95;1802721;79;21538;-84
2022/09/07 03:05:09;;;;;;;7.62;3.30;;;;;;;7.11;74.28;101922.30;1783993;79;21600;-83
2022/09/07 03:08:01;;;;;;;4.35;3.55;;;;;;;7.08;74.26;101915.59;1782246;79;21052;-84
2022/09/07 03:10:28;;;;;;;6.05;3.33;;;;;;;7.06;74.33;101915.50;1808529;79;21756;-84
2022/09/07 03:12:55;;;;;;;6.97;3.65;;;;;;;7.07;74.28;101918.59;1788372;79;21552;-84
2022/09/07 03:15:24;;;;;;;4.92;3.35;;;;;;;7.05;74.28;101916.30;1811037;78;21034;-84
2022/09/07 03:17:51;;;;;;;6.15;3.30;;;;;;;7.02;74.22;101914.83;1781317;79;21086;-86
2022/09/07 03:20:18;;;;;;;4.08;3.30;;;;;;;7.00;74.23;101915.13;1788715;79;21078;-87
2022/09/07 03:22:47;;;;;;;4.20;3.12;;;;;;;6.99;74.28;101915.53;1804138;79;21733;-86
2022/09/07 03:25:13;;;;;;;4.47;2.77;;;;;;;6.99;74.29;101916.84;1784863;79;21039;-87
2022/09/07 03:27:40;;;;;;;4.95;3.10;;;;;;;6.98;74.29;101912.44;1776113;78;21115;-85
2022/09/07 03:30:09;;;;;;;5.75;3.37;;;;;;;6.97;74.29;101919.78;1796476;78;21528;-86
2022/09/07 03:32:37;;;;;;;4.45;3.60;;;;;;;6.97;74.39;101910.63;1769022;79;21147;-86
2022/09/07 03:35:06;;;;;;;5.28;3.50;;;;;;;6.98;74.35;101913.75;1778396;79;21807;-86
2022/09/07 03:37:35;;;;;;;5.37;3.70;;;;;;;6.99;74.38;101914.64;1807804;79;21106;-86
2022/09/07 03:40:05;;;;;;;5.90;3.42;;;;;;;6.98;74.30;101918.05;1794309;78;21062;-85
2022/09/07 03:42:32;;;;;;;8.78;3.75;;;;;;;6.96;74.31;101918.37;1782665;80;21043;-85
2022/09/07 03:44:58;;;;;;;8.30;3.55;;;;;;;6.95;74.33;101919.21;1791664;79;21038;-85
2022/09/07 03:47:25;;;;;;;6.10;3.77;;;;;;;6.87;74.31;101912.60;1770461;79;22575;-85
2022/09/07 03:49:52;;;;;;;5.92;3.42;;;;;;;6.87;74.42;101926.62;1737933;82;21051;-85
2022/09/07 03:52:19;;;;;;;8.20;3.87;;;;;;;6.81;74.37;101927.16;1769531;80;21046;-86
2022/09/07 03:54:46;;;;;;;4.65;3.45;;;;;;;6.78;74.43;101926.97;1772422;80;21078;-85
2022/09/07 03:57:12;;;;;;;5.55;3.67;;;;;;;6.74;74.42;101925.40;1739884;82;21067;-89
2022/09/07 03:59:39;;;;;;;6.08;3.60;;;;;;;6.70;74.49;101930.85;1753591;80;21810;-87
2022/09/07 04:02:06;;;;;;;6.22;4.00;;;;;;;6.68;74.56;101935.09;1727188;82;21055;-90
2022/09/07 04:04:33;;;;;;;7.65;3.62;;;;;;;6.67;74.62;101935.89;1754529;81;21026;-88
2022/09/07 04:07:00;;;;;;;6.10;3.95;;;;;;;6.68;74.70;101942.94;1770830;80;21046;-87
2022/09/07 04:09:27;;;;;;;8.15;3.98;;;;;;;6.73;74.79;101944.52;1773224;80;20979;-87
2022/09/07 04:11:54;;;;;;;4.87;3.75;;;;;;;6.73;74.79;101939.28;1764424;80;21747;-86
2022/09/07 04:14:20;;;;;;;9.18;3.85;;;;;;;6.77;74.84;101947.80;1719607;82;21124;-89
2022/09/07 04:16:47;;;;;;;10.30;3.55;;;;;;;6.79;74.89;101942.25;1731546;82;21542;-86
2022/09/07 04:19:14;;;;;;;7.22;3.75;;;;;;;6.81;74.95;101946.78;1711946;83;21056;-87
2022/09/07 04:21:43;;;;;;;6.28;3.92;;;;;;;6.89;75.04;101940.69;1735129;82;22034;-84
2022/09/07 04:24:09;;;;;;;5.53;4.00;;;;;;;6.93;74.91;101933.92;1735802;81;21885;-82
2022/09/07 04:26:36;;;;;;;4.03;3.45;;;;;;;7.01;74.96;101937.88;1720242;82;21079;-83
2022/09/07 04:29:03;;;;;;;7.33;4.30;;;;;;;7.09;75.16;101938.33;1705048;82;21031;-83
2022/09/07 04:31:39;;;;;;;4.83;3.60;;;;;;;7.19;75.07;101944.19;1734245;80;21072;-83
2022/09/07 04:34:09;;;;;;;7.80;4.20;;;;;;;7.28;74.89;101945.14;1748485;81;21102;-84
2022/09/07 04:36:36;;;;;;;6.78;4.15;;;;;;;7.93;76.33;101933.02;1731623;82;21683;-82
2022/09/07 04:39:03;;;;;;;8.55;4.53;;;;;;;9.47;77.51;101927.39;1739705;80;21062;-84
2022/09/07 04:41:31;;;;;;;10.18;4.35;;;;;;;11.02;76.46;101921.69;1774798;79;21983;-84
2022/09/07 04:44:00;;;;;;;7.37;3.77;;;;;;;12.39;75.01;101915.61;1779397;80;21573;-86
2022/09/07 04:46:34;;;;;;;6.40;4.00;;;;;;;13.63;73.27;101904.77;1774864;80;21070;-88
2022/09/07 04:49:08;;;;;;;5.25;3.47;;;;;;;14.75;71.80;101902.31;1771650;80;21794;-86
2022/09/07 04:51:45;;;;;;;9.58;3.60;;;;;;;15.81;69.80;101903.98;1718312;80;21070;-86
2022/09/07 04:54:12;;;;;;;8.40;3.62;;;;;;;16.79;68.70;101902.38;1747509;81;21134;-87
2022/09/07 04:56:39;;;;;;;7.90;3.98;;;;;;;17.69;66.72;101900.28;1770530;80;21129;-85
2022/09/07 04:59:06;;;;;;;8.95;3.55;;;;;;;18.38;65.40;101899.42;1763131;80;21550;-85
2022/09/07 05:01:33;;;;;;;11.22;4.08;;;;;;;18.62;63.63;101897.01;1751112;80;21725;-86
2022/09/07 05:04:00;;;;;;;6.80;4.17;;;;;;;18.24;61.63;101895.24;1743752;80;21070;-84
2022/09/07 05:06:27;;;;;;;6.03;4.05;;;;;;;17.62;60.50;101889.08;1769275;80;21533;-85
2022/09/07 05:08:54;;;;;;;5.30;3.55;;;;;;;16.82;59.61;101895.83;1762543;80;21661;-86
2022/09/07 05:11:22;;;;;;;10.88;3.50;;;;;;;16.10;59.75;101896.65;1774942;80;21039;-84
2022/09/07 05:13:58;;;;;;;5.22;3.85;;;;;;;15.52;59.74;101897.97;1753107;79;21748;-90
2022/09/07 05:16:28;;;;;;;8.75;3.70;;;;;;;15.09;60.33;101888.98;1758752;80;21584;-90
2022/09/07 05:19:00;;;;;;;4.33;3.72;;;;;;;14.73;60.53;101893.83;1775591;80;21055;-91
2022/09/07 05:21:31;;;;;;;5.55;3.83;;;;;;;14.44;60.70;101890.38;1779597;80;21082;-88
2022/09/07 05:23:59;;;;;;;6.83;3.87;;;;;;;14.12;60.87;101880.67;1748994;80;21098;-93
2022/09/07 05:26:28;;;;;;;7.30;4.05;;;;;;;13.86;60.87;101880.35;1787851;79;21699;-88
2022/09/07 05:29:06;;;;;;;;;;;;;;;;;;;;;
2022/09/07 05:31:27;;;;;;;5.70;3.75;;;;;;;13.54;61.47;101877.19;1788794;79;21696;-87
2022/09/07 05:33:56;;;;;;;5.47;4.67;;;;;;;13.42;61.62;101879.48;1789055;80;21690;-88
2022/09/07 05:36:27;;;;;;;7.20;4.75;;;;;;;13.33;61.89;101873.46;1776260;79;21425;-90
2022/09/07 05:38:54;;;;;;;7.40;4.53;;;;;;;13.23;61.99;101873.97;1777161;79;21760;-87
2022/09/07 05:41:25;;;;;;;8.23;4.35;;;;;;;13.13;62.13;101875.42;1763089;80;21564;-87
2022/09/07 05:43:53;;;;;;;8.48;4.10;;;;;;;13.03;62.30;101873.34;1773089;79;21180;-87
2022/09/07 05:46:22;;;;;;;7.78;4.20;;;;;;;12.93;62.40;101877.83;1754984;81;21072;-90
2022/09/07 05:48:49;;;;;;;6.67;4.70;;;;;;;12.85;62.65;101865.69;1753252;79;21080;-90
2022/09/07 05:51:16;;;;;;;6.25;4.33;;;;;;;12.75;62.74;101864.91;1755721;79;22449;-89
2022/09/07 05:53:46;;;;;;;5.90;4.03;;;;;;;12.59;62.85;101862.16;1763401;80;21049;-89
2022/09/07 05:56:13;;;;;;;9.03;4.58;;;;;;;12.39;63.10;101849.59;1759105;80;21583;-91
2022/09/07 05:58:49;;;;;;;11.68;4.53;;;;;;;12.39;63.20;101877.32;1765631;80;21320;-91
2022/09/07 06:01:15;;;;;;;6.33;3.87;;;;;;;12.35;63.50;101880.67;1758417;80;21122;-91
2022/09/07 06:03:43;;;;;;;13.45;4.90;;;;;;;12.25;63.56;101877.69;1777324;79;21757;-92
2022/09/07 06:06:15;;;;;;;10.58;4.40;;;;;;;12.21;63.78;101872.27;1756986;79;21046;-90
2022/09/07 06:08:48;;;;;;;6.95;4.17;;;;;;;12.18;63.79;101872.14;1763321;80;21070;-91
2022/09/07 06:11:44;;;;;;;9.18;4.05;;;;;;;12.13;63.96;101874.63;1745073;80;21675;-91
2022/09/07 06:14:10;;;;;;;7.33;3.80;;;;;;;12.09;63.99;101871.80;1752133;80;21038;-87
2022/09/07 06:16:39;;;;;;;5.85;3.85;;;;;;;12.03;64.23;101876.43;1772078;80;22296;-90
2022/09/07 06:19:09;;;;;;;6.42;4.08;;;;;;;12.00;64.39;101871.95;1742893;80;21297;-90
2022/09/07 06:21:36;;;;;;;9.30;3.50;;;;;;;12.01;64.59;101876.80;1764787;79;21105;-87
2022/09/07 06:24:05;;;;;;;8.20;3.87;;;;;;;12.03;64.64;101882.64;1768199;80;21122;-88
2022/09/07 06:26:35;;;;;;;8.13;3.37;;;;;;;12.05;64.61;101887.97;1761138;80;21102;-89
2022/09/07 06:29:32;;;;;;;9.35;3.75;;;;;;;12.06;64.68;101887.11;1771813;80;21785;-87
2022/09/07 06:31:59;;;;;;;5.45;3.33;;;;;;;12.06;64.63;101887.11;1764157;80;21058;-88
2022/09/07 06:34:25;;;;;;;8.88;3.45;;;;;;;12.06;64.66;101888.00;1766250;79;21066;-88
2022/09/07 06:36:52;;;;;;;5.00;3.27;;;;;;;12.07;64.74;101877.05;1772795;80;21828;-88
2022/09/07 06:39:19;;;;;;;4.33;3.02;;;;;;;12.08;64.66;101873.98;1772781;79;21569;-91
2022/09/07 06:41:46;;;;;;;8.95;3.52;;;;;;;12.08;64.59;101876.63;1761939;79;21746;-88
2022/09/07 06:44:13;;;;;;;4.53;3.47;;;;;;;12.09;64.71;101870.09;1767091;80;21050;-88
2022/09/07 06:46:40;;;;;;;5.85;4.17;;;;;;;12.11;64.75;101868.40;1748074;80;21091;-88
2022/09/07 06:49:07;;;;;;;9.93;4.50;;;;;;;12.12;64.80;101863.58;1742882;80;21062;-89
2022/09/07 06:51:35;;;;;;;5.85;4.30;;;;;;;12.16;64.82;101864.20;1753147;80;21581;-89
2022/09/07 06:54:04;;;;;;;11.57;4.55;;;;;;;12.19;64.82;101871.31;1740277;80;22466;-89
2022/09/07 06:56:30;;;;;;;8.25;4.10;;;;;;;12.19;64.65;101866.92;1743161;80;21589;-89
2022/09/07 06:58:57;;;;;;;5.72;4.12;;;;;;;12.23;64.61;101871.47;1752198;80;21722;-89
2022/09/07 07:01:24;;;;;;;8.80;4.20;;;;;;;12.24;64.57;101871.95;1752602;80;21110;-89
2022/09/07 07:03:52;;;;;;;6.62;3.00;;;;;;;12.29;64.62;101864.62;1748988;80;21079;-87
2022/09/07 07:06:18;;;;;;;6.67;2.85;;;;;;;12.33;64.32;101862.16;1748116;80;21719;-89
2022/09/07 07:08:46;;;;;;;5.37;2.70;;;;;;;12.34;64.21;101867.90;1753525;80;21185;-90
2022/09/07 07:11:14;;;;;;;4.53;2.80;;;;;;;12.37;64.23;101865.38;1752615;80;21055;-89
2022/09/07 07:13:42;;;;;;;5.53;2.83;;;;;;;12.44;64.03;101857.23;1737165;80;21694;-90
2022/09/07 07:16:12;;;;;;;8.25;3.20;;;;;;;12.52;63.91;101868.98;1755085;80;21090;-90
2022/09/07 07:18:38;;;;;;;15.43;3.33;;;;;;;12.59;63.74;101870.08;1748244;80;21151;-89
2022/09/07 07:21:08;;;;;;;8.00;3.22;;;;;;;12.66;63.69;101864.59;1753905;80;21058;-89
2022/09/07 07:23:37;;;;;;;7.17;3.40;;;;;;;12.72;63.67;101868.33;1747118;80;21051;-90
2022/09/07 07:26:11;;;;;;;8.28;3.35;;;;;;;12.78;63.42;101865.00;1764168;80;21568;-90
2022/09/07 07:28:48;;;;;;;9.40;3.35;;;;;;;12.81;63.34;101860.72;1756447;80;21291;-89
2022/09/07 07:31:20;;;;;;;7.97;4.37;;;;;;;12.88;63.26;101869.77;1749054;80;21103;-91
2022/09/07 07:33:47;;;;;;;6.03;3.87;;;;;;;12.98;63.31;101873.60;1725195;82;21157;-88
2022/09/07 07:36:16;;;;;;;11.97;4.20;;;;;;;13.04;63.16;101872.47;1751625;80;21066;-89
2022/09/07 07:38:49;;;;;;;7.00;4.05;;;;;;;13.10;63.15;101866.48;1762290;80;21052;-91
2022/09/07 07:41:17;;;;;;;7.25;4.87;;;;;;;13.17;62.95;101864.52;1762784;80;21118;-89
2022/09/07 07:43:44;;;;;;;11.20;4.20;;;;;;;13.23;62.77;101861.67;1756175;80;21795;-88
2022/09/07 07:46:17;;;;;;;6.55;3.75;;;;;;;13.29;62.64;101870.22;1757109;80;21074;-88
2022/09/07 07:48:46;;;;;;;8.50;3.87;;;;;;;13.34;62.57;101868.63;1757524;80;21066;-89
2022/09/07 07:51:14;;;;;;;7.67;4.28;;;;;;;13.39;62.54;101865.71;1751108;80;21038;-89
2022/09/07 07:53:40;;;;;;;7.45;3.80;;;;;;;13.47;62.48;101872.56;1753970;80;21125;-89
2022/09/07 07:56:24;;;;;;;13.25;5.33;;;;;;;13.54;62.47;101861.76;1760444;80;21807;-88
2022/09/07 07:58:51;;;;;;;12.35;3.60;;;;;;;13.63;62.35;101869.05;1754976;80;21088;-88
2022/09/07 08:01:18;;;;;;;9.70;3.72;;;;;;;13.71;62.28;101862.27;1754374;80;21130;-88
2022/09/07 08:03:46;;;;;;;5.83;2.85;;;;;;;13.78;62.06;101861.17;1743517;80;21070;-86
2022/09/07 08:06:15;;;;;;;6.75;3.65;;;;;;;13.82;61.78;101856.87;1755051;80;21086;-87
2022/09/07 08:08:42;;;;;;;10.05;3.27;;;;;;;13.87;61.61;101860.95;1749688;80;21809;-87
2022/09/07 08:11:15;;;;;;;5.58;3.30;;;;;;;13.92;61.60;101856.70;1758890;80;21122;-87
2022/09/07 08:13:42;;;;;;;4.42;2.80;;;;;;;14.00;61.61;101857.80;1755576;80;28833;-86
2022/09/07 08:16:10;;;;;;;6.87;3.87;;;;;;;14.05;61.48;101857.95;1762310;80;21066;-87
2022/09/07 08:18:37;;;;;;;5.75;4.08;;;;;;;14.09;61.18;101857.19;1756699;80;21458;-87
2022/09/07 08:21:14;;;;;;;8.55;3.92;;;;;;;14.12;60.97;101857.28;1756861;80;22435;-87
2022/09/07 08:23:41;;;;;;;4.70;3.05;;;;;;;14.16;60.93;101849.45;1764485;80;21319;-89
2022/09/07 08:26:08;;;;;;;6.35;5.22;;;;;;;14.25;60.85;101845.28;1754453;80;21027;-88
2022/09/07 08:28:39;;;;;;;5.05;3.58;;;;;;;14.29;60.76;101845.83;1759905;80;21125;-86
2022/09/07 08:31:11;;;;;;;5.83;3.92;;;;;;;14.35;60.57;101848.64;1743585;80;21121;-86
2022/09/07 08:33:39;;;;;;;5.93;3.80;;;;;;;14.41;60.26;101842.17;1749820;80;22663;-87
2022/09/07 08:36:09;;;;;;;6.45;3.90;;;;;;;14.48;60.18;101844.14;1758970;80;21083;-87
2022/09/07 08:38:36;;;;;;;8.45;3.40;;;;;;;14.52;60.23;101843.79;1762488;80;21126;-89
2022/09/07 08:41:22;;;;;;;4.20;3.45;;;;;;;14.56;60.09;101842.60;1765549;80;21097;-88
2022/09/07 08:43:56;;;;;;;5.28;3.50;;;;;;;14.62;60.20;101844.95;1788317;79;21011;-87
2022/09/07 08:46:44;;;;;;;6.78;3.30;;;;;;;14.70;60.18;101845.62;1794418;79;22561;-89
2022/09/07 08:50:00;;;;;;;4.05;2.52;;;;;;;14.74;60.06;101846.61;1792587;79;21102;-88
2022/09/07 08:52:38;;;;;;;2.95;2.52;;;;;;;14.79;59.86;101847.63;1787202;79;21068;-88
2022/09/07 08:55:31;;;;;;;4.83;2.87;;;;;;;14.85;59.70;101842.47;1790518;79;21549;-88
2022/09/07 08:58:27;;;;;;;6.00;2.90;;;;;;;14.94;59.75;101847.08;1753150;81;21106;-88
2022/09/07 09:00:53;;;;;;;7.50;2.65;;;;;;;15.04;59.52;101842.93;1722338;82;22633;-88
2022/09/07 09:03:23;;;;;;;5.15;2.58;;;;;;;15.14;59.30;101844.92;1717172;82;21032;-87
2022/09/07 09:05:58;;;;;;;5.03;3.12;;;;;;;15.18;58.98;101841.92;1707541;82;21092;-89
2022/09/07 09:09:04;;;;;;;4.92;2.52;;;;;;;15.23;58.79;101838.95;1724269;82;21074;-89
2022/09/07 09:11:50;;;;;;;4.95;3.00;;;;;;;15.31;58.68;101832.95;1724061;82;21059;-90
2022/09/07 09:14:31;;;;;;;7.30;2.80;;;;;;;15.41;58.43;101831.83;1768021;79;21807;-88
2022/09/07 09:17:01;;;;;;;4.67;2.70;;;;;;;15.46;58.31;101820.45;1780804;79;21106;-88
2022/09/07 09:19:50;;;;;;;8.33;2.58;;;;;;;15.54;58.16;101824.59;1792864;79;21117;-87
2022/09/07 09:22:22;;;;;;;6.78;2.47;;;;;;;15.63;58.27;101824.80;1794352;79;21125;-88
2022/09/07 09:25:01;;;;;;;2.92;2.00;;;;;;;15.76;58.15;101824.67;1792972;79;21086;-88
2022/09/07 09:27:28;;;;;;;6.42;2.20;;;;;;;15.85;57.95;101819.99;1790013;79;21733;-88
2022/09/07 09:29:55;;;;;;;5.25;2.27;;;;;;;15.92;57.27;101820.14;1777938;79;21672;-89
2022/09/07 09:32:38;;;;;;;7.67;2.10;;;;;;;15.96;57.04;101818.45;1793708;79;21102;-88
2022/09/07 09:35:15;;;;;;;6.62;1.82;;;;;;;15.98;56.88;101812.73;1778028;79;21035;-87
2022/09/07 09:37:43;;;;;;;2.47;2.02;;;;;;;16.06;56.76;101814.20;1784565;79;21213;-90
2022/09/07 09:40:25;;;;;;;4.00;1.82;;;;;;;16.17;56.58;101807.78;1753050;81;22652;-89
2022/09/07 09:43:03;;;;;;;1.77;1.35;;;;;;;16.25;56.27;101799.51;1749149;80;21004;-87
2022/09/07 09:45:34;;;;;;;5.22;1.62;;;;;;;16.33;56.02;101792.59;1790732;79;21082;-88
2022/09/07 09:48:02;;;;;;;3.80;1.50;;;;;;;16.42;55.54;101791.43;1725661;81;21027;-88
2022/09/07 09:50:35;;;;;;;5.67;1.70;;;;;;;16.48;55.12;101786.66;1737827;81;21545;-87
2022/09/07 09:53:04;;;;;;;6.35;1.75;;;;;;;16.56;55.00;101787.67;1760850;81;21778;-89
2022/09/07 09:55:36;;;;;;;3.62;1.35;;;;;;;16.63;54.73;101774.03;1699031;82;21094;-88
2022/09/07 09:58:07;;;;;;;3.87;1.77;;;;;;;16.70;54.55;101779.50;1721822;82;21119;-87
2022/09/07 10:00:34;;;;;;;3.60;1.90;;;;;;;16.75;54.27;101771.58;1724442;82;21094;-90
2022/09/07 10:03:15;;;;;;;2.95;1.80;;;;;;;16.79;54.10;101761.89;1753319;80;21106;-88
2022/09/07 10:05:43;;;;;;;3.10;1.50;;;;;;;16.85;53.97;101762.01;1722010;82;21812;-89
2022/09/07 10:08:29;;;;;;;2.67;1.47;;;;;;;16.92;53.45;101760.35;1788380;79;21046;-88
2022/09/07 10:11:05;;;;;;;5.15;1.30;;;;;;;16.95;53.26;101761.70;1757034;80;21545;-88
2022/09/07 10:13:36;;;;;;;5.25;1.57;;;;;;;17.01;53.07;101760.49;1755180;80;21605;-88
2022/09/07 10:16:07;;;;;;;3.42;1.60;;;;;;;17.06;52.73;101755.70;1720018;80;21040;-88
2022/09/07 10:18:40;;;;;;;3.50;1.37;;;;;;;17.11;52.38;101754.42;1748452;80;22545;-88
2022/09/07 10:21:26;;;;;;;3.22;1.30;;;;;;;17.14;52.13;101751.81;1746495;80;21071;-88
2022/09/07 10:23:59;;;;;;;1.57;1.27;;;;;;;17.21;51.83;101751.03;1735195;81;21565;-89
2022/09/07 10:26:35;;;;;;;2.22;1.40;;;;;;;17.25;51.47;101748.86;1757078;80;21118;-88
2022/09/07 10:29:24;;;;;;;2.67;1.20;;;;;;;17.28;51.41;101749.33;1733077;82;21494;-88
2022/09/07 10:32:02;;;;;;;3.25;1.30;;;;;;;17.34;51.42;101756.05;1713099;82;21777;-88
2022/09/07 10:35:17;;;;;;;4.62;1.30;;;;;;;17.39;50.79;101751.69;1752965;80;21586;-88
2022/09/07 10:37:52;;;;;;;3.58;1.25;;;;;;;17.42;50.43;101745.09;1782842;79;21010;-87
2022/09/07 10:40:35;;;;;;;2.98;1.20;;;;;;;17.46;50.33;101756.22;1806718;79;21074;-87
2022/09/07 10:43:16;;;;;;;3.25;1.27;;;;;;;17.54;50.08;101752.77;1797429;79;21055;-88
2022/09/07 10:46:12;;;;;;;4.80;1.40;;;;;;;17.54;49.69;101745.67;1801277;79;22036;-90
2022/09/07 10:49:13;;;;;;;3.05;1.30;;;;;;;17.56;49.43;101742.59;1791679;79;21935;-90
2022/09/07 10:51:57;;;;;;;5.60;1.62;;;;;;;17.59;49.21;101747.08;1796921;79;21097;-90
2022/09/07 10:54:41;;;;;;;4.15;1.30;;;;;;;17.61;49.01;101739.55;1796704;79;21563;-90
2022/09/07 10:57:28;;;;;;;;;;;;;;;17.63;48.94;101744.45;1790434;79;21062;-88
2022/09/07 11:00:08;;;;;;;4.72;1.35;;;;;;;17.67;48.64;101740.94;1792141;79;21166;-88
2022/09/07 11:03:24;;;;;;;1.57;1.22;;;;;;;17.72;48.95;101744.09;1797826;79;21140;-90
2022/09/07 11:06:14;;;;;;;4.40;1.25;;;;;;;17.81;49.12;101733.12;1780765;79;21046;-91
2022/09/07 11:09:01;;;;;;;2.15;1.22;;;;;;;17.94;48.97;101740.81;1754124;80;21074;-89
2022/09/07 11:11:42;;;;;;;7.90;1.37;;;;;;;17.99;48.41;101736.44;1755606;80;21138;-88
2022/09/07 11:14:17;;;;;;;3.08;1.10;;;;;;;18.00;48.08;101735.58;1754276;80;22669;-88
2022/09/07 11:19:22;;;;;;;8.53;1.82;;;;;;;18.01;47.46;101725.80;1756497;80;21022;-87
2022/09/07 11:22:22;;;;;;;2.80;1.60;;;;;;;18.00;47.35;101718.26;1746916;80;21115;-91
2022/09/07 11:25:08;;;;;;;2.92;1.05;;;;;;;18.02;47.15;101718.28;1708411;83;21126;-90
2022/09/07 11:27:48;;;;;;;1.92;1.47;;;;;;;18.05;47.02;101716.95;1745464;80;21605;-89
2022/09/07 11:30:33;;;;;;;1.32;1.00;;;;;;;18.09;47.10;101707.23;1753897;81;21150;-89
2022/09/07 11:33:17;;;;;;;2.85;1.30;;;;;;;18.19;47.00;101710.45;1789709;79;21063;-89
2022/09/07 11:36:01;;;;;;;2.15;1.20;;;;;;;18.28;46.82;101713.61;1794942;79;21070;-88
2022/09/07 11:38:50;;;;;;;5.00;1.47;;;;;;;18.31;46.36;101716.31;1788786;78;21028;-89
2022/09/07 11:41:21;;;;;;;2.72;1.15;;;;;;;18.27;46.06;101708.73;1798117;78;21702;-88
2022/09/07 11:44:00;;;;;;;3.67;1.32;;;;;;;18.26;46.04;101710.92;1788510;79;21110;-88
2022/09/07 11:46:48;;;;;;;2.55;1.30;;;;;;;18.28;45.79;101714.49;1766955;80;21083;-88
2022/09/07 11:49:21;;;;;;;3.12;1.07;;;;;;;18.30;45.84;101716.77;1780289;79;21306;-88
2022/09/07 11:52:16;;;;;;;3.33;1.10;;;;;;;18.35;45.77;101708.34;1773122;80;21087;-89
2022/09/07 11:54:53;;;;;;;3.20;1.20;;;;;;;18.36;45.52;101714.14;1767811;79;22374;-87
2022/09/07 11:57:54;;;;;;;3.42;1.40;;;;;;;18.39;45.52;101712.84;1763111;79;21687;-87
2022/09/07 12:00:41;;;;;;;3.52;2.00;;;;;;;18.39;45.28;101710.17;1773569;80;21055;-87
2022/09/07 12:03:54;;;;;;;5.17;3.55;;;;;;;18.43;44.88;101704.40;1744619;81;21118;-86
2022/09/07 12:06:44;;;;;;;1.37;1.27;;;;;;;18.43;44.68;101701.32;1754903;80;21165;-88